Time,TemperatureF,DewpointF,PressureIn,WindDirection,WindDirectionDegrees,WindSpeedMPH,WindSpeedGustMPH,Humidity,HourlyPrecipIn,Conditions,Clouds,dailyrainin,SoftwareType,DateUTC
2013-05-02 00:03:00,63.0,40.0,30.31,ESE,120,2.0,3.0,43,0.00,,,0.00,,2013-05-02 04:03:00,
2013-05-02 00:12:00,63.0,40.0,30.31,ESE,120,2.0,3.0,43,0.00,,,0.00,,2013-05-02 04:12:00,
2013-05-02 00:23:00,63.0,40.0,30.31,SE,143,1.0,4.0,42,0.00,,,0.00,,2013-05-02 04:23:00,
2013-05-02 00:33:00,63.0,40.0,30.31,SE,144,1.0,3.0,42,0.00,,,0.00,,2013-05-02 04:33:00,
2013-05-02 00:43:00,63.0,40.0,30.31,SE,144,1.0,3.0,42,0.00,,,0.00,,2013-05-02 04:43:00,
2013-05-02 00:52:00,63.0,38.0,30.31,South,169,1.0,3.0,40,0.00,,,0.00,,2013-05-02 04:52:00,
2013-05-02 01:02:00,63.0,38.0,30.31,SSE,164,0.0,2.0,40,0.00,,,0.00,,2013-05-02 05:02:00,
2013-05-02 01:12:00,63.0,38.0,30.31,SSE,164,0.0,2.0,40,0.00,,,0.00,,2013-05-02 05:12:00,
2013-05-02 01:22:00,62.0,37.0,30.31,SSE,159,2.0,4.0,39,0.00,,,0.00,,2013-05-02 05:22:00,
2013-05-02 01:32:00,62.0,37.0,30.31,SE,134,1.0,5.0,40,0.00,,,0.00,,2013-05-02 05:32:00,
2013-05-02 01:42:00,62.0,37.0,30.31,SE,134,1.0,5.0,40,0.00,,,0.00,,2013-05-02 05:42:00,
2013-05-02 01:52:00,62.0,37.0,30.31,SE,146,1.0,3.0,39,0.00,,,0.00,,2013-05-02 05:52:00,
2013-05-02 02:01:00,61.0,37.0,30.32,SSW,208,0.0,3.0,41,0.00,,,0.00,,2013-05-02 06:01:00,
2013-05-02 02:12:00,61.0,37.0,30.32,SSW,208,0.0,3.0,41,0.00,,,0.00,,2013-05-02 06:12:00,
2013-05-02 02:22:00,61.0,36.0,30.31,SSE,167,1.0,3.0,40,0.00,,,0.00,,2013-05-02 06:22:00,
2013-05-02 02:32:00,60.0,36.0,30.31,SE,137,0.0,4.0,41,0.00,,,0.00,,2013-05-02 06:32:00,
2013-05-02 02:42:00,60.0,36.0,30.31,SE,137,0.0,4.0,41,0.00,,,0.00,,2013-05-02 06:42:00,
2013-05-02 02:52:00,60.0,36.0,30.32,SSE,153,0.0,3.0,41,0.00,,,0.00,,2013-05-02 06:52:00,
2013-05-02 03:02:00,60.0,37.0,30.32,SSE,156,1.0,3.0,43,0.00,,,0.00,,2013-05-02 07:02:00,
2013-05-02 03:11:00,60.0,37.0,30.32,SSE,156,1.0,3.0,43,0.00,,,0.00,,2013-05-02 07:11:00,
2013-05-02 03:21:00,59.0,37.0,30.32,SE,124,1.0,3.0,43,0.00,,,0.00,,2013-05-02 07:21:00,
2013-05-02 03:32:00,59.0,36.0,30.32,SE,132,0.0,2.0,42,0.00,,,0.00,,2013-05-02 07:32:00,
2013-05-02 03:42:00,59.0,36.0,30.32,SE,132,0.0,2.0,42,0.00,,,0.00,,2013-05-02 07:42:00,
2013-05-02 03:52:00,58.0,36.0,30.32,SSE,157,0.0,2.0,43,0.00,,,0.00,,2013-05-02 07:52:00,
2013-05-02 04:02:00,58.0,36.0,30.32,East,94,0.0,1.0,44,0.00,,,0.00,,2013-05-02 08:02:00,
2013-05-02 04:11:00,58.0,36.0,30.32,East,94,0.0,1.0,44,0.00,,,0.00,,2013-05-02 08:11:00,
2013-05-02 04:22:00,58.0,36.0,30.33,SW,226,0.0,3.0,43,0.00,,,0.00,,2013-05-02 08:22:00,
2013-05-02 04:32:00,58.0,35.0,30.33,SW,218,2.0,4.0,42,0.00,,,0.00,,2013-05-02 08:32:00,
2013-05-02 04:42:00,58.0,35.0,30.33,SW,218,2.0,4.0,42,0.00,,,0.00,,2013-05-02 08:42:00,
2013-05-02 04:52:00,59.0,36.0,30.34,SSE,167,2.0,5.0,42,0.00,,,0.00,,2013-05-02 08:52:00,
2013-05-02 05:02:00,58.0,36.0,30.34,South,174,1.0,5.0,43,0.00,,,0.00,,2013-05-02 09:02:00,
2013-05-02 05:12:00,58.0,36.0,30.34,South,174,1.0,5.0,43,0.00,,,0.00,,2013-05-02 09:12:00,
2013-05-02 05:21:00,57.0,34.0,30.34,SSE,150,0.0,3.0,42,0.00,,,0.00,,2013-05-02 09:21:00,
2013-05-02 05:32:00,57.0,35.0,30.34,SW,217,1.0,3.0,43,0.00,,,0.00,,2013-05-02 09:32:00,
2013-05-02 05:42:00,57.0,35.0,30.34,SW,217,1.0,3.0,43,0.00,,,0.00,,2013-05-02 09:42:00,
2013-05-02 05:52:00,56.0,34.0,30.34,SSE,149,1.0,3.0,44,0.00,,,0.00,,2013-05-02 09:52:00,
2013-05-02 06:03:00,55.0,35.0,30.35,South,183,0.0,1.0,47,0.00,,,0.00,,2013-05-02 10:03:00,
2013-05-02 06:12:00,55.0,35.0,30.35,South,183,0.0,1.0,47,0.00,,,0.00,,2013-05-02 10:12:00,
2013-05-02 06:23:00,55.0,35.0,30.35,SE,135,1.0,3.0,47,0.00,,,0.00,,2013-05-02 10:23:00,
2013-05-02 06:33:00,55.0,36.0,30.36,SSE,147,0.0,2.0,48,0.00,,,0.00,,2013-05-02 10:33:00,
2013-05-02 06:42:00,55.0,36.0,30.36,SSE,147,0.0,2.0,48,0.00,,,0.00,,2013-05-02 10:42:00,
2013-05-02 06:53:00,56.0,34.0,30.37,SW,215,0.0,1.0,44,0.00,,,0.00,,2013-05-02 10:53:00,
2013-05-02 07:02:00,57.0,35.0,30.38,SW,217,0.0,1.0,43,0.00,,,0.00,,2013-05-02 11:02:00,
2013-05-02 07:12:00,57.0,35.0,30.38,SW,217,0.0,1.0,43,0.00,,,0.00,,2013-05-02 11:12:00,
2013-05-02 07:22:00,58.0,36.0,30.38,SW,217,1.0,1.0,43,0.00,,,0.00,,2013-05-02 11:22:00,
2013-05-02 07:32:00,59.0,35.0,30.39,South,173,1.0,2.0,41,0.00,,,0.00,,2013-05-02 11:32:00,
2013-05-02 07:42:00,59.0,35.0,30.39,South,173,1.0,2.0,41,0.00,,,0.00,,2013-05-02 11:42:00,
2013-05-02 07:52:00,60.0,37.0,30.39,SE,139,1.0,3.0,42,0.00,,,0.00,,2013-05-02 11:52:00,
2013-05-02 08:01:00,61.0,38.0,30.40,SW,217,1.0,3.0,42,0.00,,,0.00,,2013-05-02 12:01:00,
2013-05-02 08:12:00,61.0,38.0,30.40,SW,217,1.0,3.0,42,0.00,,,0.00,,2013-05-02 12:12:00,
2013-05-02 08:22:00,61.0,38.0,30.40,WSW,243,1.0,4.0,43,0.00,,,0.00,,2013-05-02 12:22:00,
2013-05-02 08:32:00,62.0,39.0,30.40,SSW,203,2.0,5.0,42,0.00,,,0.00,,2013-05-02 12:32:00,
2013-05-02 08:42:00,62.0,39.0,30.40,SSW,203,2.0,5.0,42,0.00,,,0.00,,2013-05-02 12:42:00,
2013-05-02 08:52:00,63.0,38.0,30.40,SSE,156,4.0,8.0,39,0.00,,,0.00,,2013-05-02 12:52:00,
2013-05-02 09:01:00,64.0,39.0,30.41,West,259,2.0,6.0,39,0.00,,,0.00,,2013-05-02 13:01:00,
2013-05-02 09:11:00,64.0,39.0,30.41,West,259,2.0,6.0,39,0.00,,,0.00,,2013-05-02 13:11:00,
2013-05-02 09:22:00,64.0,37.0,30.41,SW,236,2.0,8.0,37,0.00,,,0.00,,2013-05-02 13:22:00,
2013-05-02 09:32:00,65.0,38.0,30.41,WSW,246,2.0,7.0,37,0.00,,,0.00,,2013-05-02 13:32:00,
2013-05-02 09:42:00,65.0,38.0,30.41,WSW,246,2.0,7.0,37,0.00,,,0.00,,2013-05-02 13:42:00,
2013-05-02 09:52:00,65.0,38.0,30.41,SSE,166,3.0,7.0,37,0.00,,,0.00,,2013-05-02 13:52:00,
2013-05-02 10:02:00,65.0,37.0,30.41,SW,232,6.0,9.0,36,0.00,,,0.00,,2013-05-02 14:02:00,
2013-05-02 10:11:00,65.0,37.0,30.41,SW,232,6.0,9.0,36,0.00,,,0.00,,2013-05-02 14:11:00,
2013-05-02 10:22:00,67.0,38.0,30.41,ESE,111,3.0,6.0,34,0.00,,,0.00,,2013-05-02 14:22:00,
2013-05-02 10:32:00,67.0,38.0,30.41,SW,214,5.0,8.0,34,0.00,,,0.00,,2013-05-02 14:32:00,
2013-05-02 10:42:00,67.0,38.0,30.41,SW,214,5.0,8.0,34,0.00,,,0.00,,2013-05-02 14:42:00,
2013-05-02 10:52:00,68.0,38.0,30.41,SW,224,5.0,9.0,33,0.00,,,0.00,,2013-05-02 14:52:00,
2013-05-02 11:02:00,68.0,38.0,30.41,SE,127,1.0,9.0,33,0.00,,,0.00,,2013-05-02 15:02:00,
2013-05-02 11:12:00,68.0,38.0,30.41,SE,127,1.0,9.0,33,0.00,,,0.00,,2013-05-02 15:12:00,
2013-05-02 11:22:00,69.0,38.0,30.41,SW,224,5.0,9.0,32,0.00,,,0.00,,2013-05-02 15:22:00,
2013-05-02 11:33:00,69.0,39.0,30.41,East,84,4.0,7.0,33,0.00,,,0.00,,2013-05-02 15:33:00,
2013-05-02 11:43:00,69.0,39.0,30.41,East,84,4.0,7.0,33,0.00,,,0.00,,2013-05-02 15:43:00,
2013-05-02 12:03:00,69.0,38.0,30.41,NNE,25,4.0,6.0,32,0.00,,,0.00,,2013-05-02 16:03:00,
2013-05-02 12:13:00,69.0,38.0,30.41,NNE,25,4.0,6.0,32,0.00,,,0.00,,2013-05-02 16:13:00,
2013-05-02 12:22:00,70.0,39.0,30.40,ENE,63,6.0,11.0,32,0.00,,,0.00,,2013-05-02 16:22:00,
2013-05-02 12:32:00,70.0,40.0,30.39,SSE,162,4.0,8.0,34,0.00,,,0.00,,2013-05-02 16:32:00,
2013-05-02 12:43:00,70.0,40.0,30.39,SSE,162,4.0,8.0,34,0.00,,,0.00,,2013-05-02 16:43:00,
2013-05-02 12:52:00,71.0,39.0,30.39,ENE,59,3.0,9.0,31,0.00,,,0.00,,2013-05-02 16:52:00,
2013-05-02 13:02:00,71.0,39.0,30.38,ESE,117,8.0,12.0,31,0.00,,,0.00,,2013-05-02 17:02:00,
2013-05-02 13:12:00,71.0,39.0,30.38,ESE,117,8.0,12.0,31,0.00,,,0.00,,2013-05-02 17:12:00,
2013-05-02 13:22:00,72.0,39.0,30.37,ESE,119,5.0,10.0,30,0.00,,,0.00,,2013-05-02 17:22:00,
2013-05-02 13:32:00,72.0,38.0,30.37,East,83,7.0,9.0,29,0.00,,,0.00,,2013-05-02 17:32:00,
2013-05-02 13:42:00,72.0,38.0,30.37,East,83,7.0,9.0,29,0.00,,,0.00,,2013-05-02 17:42:00,
2013-05-02 13:52:00,73.0,40.0,30.36,East,79,4.0,7.0,30,0.00,,,0.00,,2013-05-02 17:52:00,
2013-05-02 14:01:00,73.0,41.0,30.35,NE,43,9.0,14.0,31,0.00,,,0.00,,2013-05-02 18:01:00,
2013-05-02 14:12:00,73.0,41.0,30.35,NE,43,9.0,14.0,31,0.00,,,0.00,,2013-05-02 18:12:00,
2013-05-02 14:22:00,73.0,38.0,30.35,ENE,68,10.0,15.0,28,0.00,,,0.00,,2013-05-02 18:22:00,
2013-05-02 14:32:00,74.0,38.0,30.35,SE,134,9.0,12.0,27,0.00,,,0.00,,2013-05-02 18:32:00,
2013-05-02 14:42:00,74.0,38.0,30.35,SE,134,9.0,12.0,27,0.00,,,0.00,,2013-05-02 18:42:00,
2013-05-02 14:52:00,74.0,45.0,30.34,ENE,65,7.0,12.0,35,0.00,,,0.00,,2013-05-02 18:52:00,
2013-05-02 15:01:00,73.0,46.0,30.34,NNE,23,9.0,16.0,38,0.00,,,0.00,,2013-05-02 19:01:00,
2013-05-02 15:11:00,73.0,46.0,30.34,NNE,23,9.0,16.0,38,0.00,,,0.00,,2013-05-02 19:11:00,
2013-05-02 15:22:00,72.0,46.0,30.34,NNE,25,12.0,17.0,40,0.00,,,0.00,,2013-05-02 19:22:00,
2013-05-02 15:32:00,72.0,44.0,30.33,NNE,29,12.0,17.0,36,0.00,,,0.00,,2013-05-02 19:32:00,
2013-05-02 15:42:00,72.0,44.0,30.33,NNE,29,12.0,17.0,36,0.00,,,0.00,,2013-05-02 19:42:00,
2013-05-02 15:52:00,72.0,44.0,30.32,NNE,30,12.0,15.0,37,0.00,,,0.00,,2013-05-02 19:52:00,
2013-05-02 16:02:00,72.0,45.0,30.32,NNE,18,10.0,17.0,38,0.00,,,0.00,,2013-05-02 20:02:00,
2013-05-02 16:11:00,72.0,45.0,30.32,NNE,18,10.0,17.0,38,0.00,,,0.00,,2013-05-02 20:11:00,
2013-05-02 16:22:00,72.0,45.0,30.31,NE,38,9.0,13.0,38,0.00,,,0.00,,2013-05-02 20:22:00,
2013-05-02 16:32:00,72.0,46.0,30.31,NNE,25,12.0,16.0,39,0.00,,,0.00,,2013-05-02 20:32:00,
2013-05-02 16:42:00,72.0,46.0,30.31,NNE,25,12.0,16.0,39,0.00,,,0.00,,2013-05-02 20:42:00,
2013-05-02 16:52:00,72.0,46.0,30.30,NE,55,11.0,18.0,39,0.00,,,0.00,,2013-05-02 20:52:00,
2013-05-02 17:01:00,72.0,46.0,30.29,NE,34,10.0,16.0,39,0.00,,,0.00,,2013-05-02 21:01:00,
2013-05-02 17:12:00,72.0,46.0,30.29,NE,34,10.0,16.0,39,0.00,,,0.00,,2013-05-02 21:12:00,
2013-05-02 17:21:00,72.0,45.0,30.29,East,86,9.0,13.0,38,0.00,,,0.00,,2013-05-02 21:21:00,
2013-05-02 17:33:00,72.0,46.0,30.29,NE,51,9.0,17.0,39,0.00,,,0.00,,2013-05-02 21:33:00,
2013-05-02 17:42:00,72.0,46.0,30.29,NE,51,9.0,17.0,39,0.00,,,0.00,,2013-05-02 21:42:00,
2013-05-02 17:53:00,71.0,43.0,30.28,NE,49,13.0,17.0,36,0.00,,,0.00,,2013-05-02 21:53:00,
2013-05-02 18:03:00,71.0,43.0,30.28,ENE,63,12.0,16.0,36,0.00,,,0.00,,2013-05-02 22:03:00,
2013-05-02 18:12:00,71.0,43.0,30.28,ENE,63,12.0,16.0,36,0.00,,,0.00,,2013-05-02 22:12:00,
2013-05-02 18:22:00,71.0,44.0,30.28,NE,34,10.0,17.0,38,0.00,,,0.00,,2013-05-02 22:22:00,
2013-05-02 18:32:00,70.0,44.0,30.27,NNE,25,8.0,14.0,39,0.00,,,0.00,,2013-05-02 22:32:00,
2013-05-02 18:42:00,70.0,44.0,30.27,NNE,25,8.0,14.0,39,0.00,,,0.00,,2013-05-02 22:42:00,
2013-05-02 18:53:00,70.0,44.0,30.27,ENE,58,7.0,11.0,39,0.00,,,0.00,,2013-05-02 22:53:00,
2013-05-02 19:02:00,70.0,45.0,30.27,NE,56,5.0,12.0,41,0.00,,,0.00,,2013-05-02 23:02:00,
2013-05-02 19:12:00,70.0,45.0,30.27,NE,56,5.0,12.0,41,0.00,,,0.00,,2013-05-02 23:12:00,
2013-05-02 19:22:00,70.0,44.0,30.26,NE,52,9.0,14.0,39,0.00,,,0.00,,2013-05-02 23:22:00,
2013-05-02 19:32:00,69.0,44.0,30.27,NE,44,9.0,11.0,40,0.00,,,0.00,,2013-05-02 23:32:00,
2013-05-02 19:42:00,69.0,44.0,30.27,NE,44,9.0,11.0,40,0.00,,,0.00,,2013-05-02 23:42:00,
2013-05-02 19:52:00,69.0,44.0,30.26,NE,50,8.0,14.0,41,0.00,,,0.00,,2013-05-02 23:52:00,
2013-05-02 20:01:00,68.0,44.0,30.26,ENE,60,7.0,9.0,42,0.00,,,0.00,,2013-05-03 00:01:00,
2013-05-02 20:11:00,68.0,44.0,30.26,ENE,60,7.0,9.0,42,0.00,,,0.00,,2013-05-03 00:11:00,
2013-05-02 20:22:00,67.0,44.0,30.26,East,92,5.0,8.0,44,0.00,,,0.00,,2013-05-03 00:22:00,
2013-05-02 20:32:00,66.0,44.0,30.26,ENE,78,6.0,8.0,45,0.00,,,0.00,,2013-05-03 00:32:00,
2013-05-02 20:42:00,66.0,44.0,30.26,ENE,78,6.0,8.0,45,0.00,,,0.00,,2013-05-03 00:42:00,
2013-05-02 20:52:00,65.0,44.0,30.26,East,89,4.0,7.0,47,0.00,,,0.00,,2013-05-03 00:52:00,
2013-05-02 21:01:00,64.0,44.0,30.26,ESE,103,5.0,7.0,48,0.00,,,0.00,,2013-05-03 01:01:00,
2013-05-02 21:11:00,64.0,44.0,30.26,ESE,103,5.0,7.0,48,0.00,,,0.00,,2013-05-03 01:11:00,
2013-05-02 21:21:00,63.0,44.0,30.26,ESE,122,5.0,8.0,50,0.00,,,0.00,,2013-05-03 01:21:00,
2013-05-02 21:32:00,62.0,44.0,30.26,East,82,5.0,9.0,51,0.00,,,0.00,,2013-05-03 01:32:00,
2013-05-02 21:42:00,62.0,44.0,30.26,East,82,5.0,9.0,51,0.00,,,0.00,,2013-05-03 01:42:00,
2013-05-02 21:52:00,60.0,43.0,30.26,ESE,103,7.0,8.0,54,0.00,,,0.00,,2013-05-03 01:52:00,
2013-05-02 22:01:00,61.0,44.0,30.26,East,101,5.0,8.0,53,0.00,,,0.00,,2013-05-03 02:01:00,
2013-05-02 22:11:00,61.0,44.0,30.26,East,101,5.0,8.0,53,0.00,,,0.00,,2013-05-03 02:11:00,
2013-05-02 22:22:00,61.0,44.0,30.27,SE,143,4.0,7.0,54,0.00,,,0.00,,2013-05-03 02:22:00,
2013-05-02 22:32:00,61.0,44.0,30.27,SE,124,4.0,7.0,54,0.00,,,0.00,,2013-05-03 02:32:00,
2013-05-02 22:42:00,61.0,44.0,30.27,SE,124,4.0,7.0,54,0.00,,,0.00,,2013-05-03 02:42:00,
2013-05-02 22:52:00,61.0,43.0,30.26,ESE,112,6.0,10.0,52,0.00,,,0.00,,2013-05-03 02:52:00,
2013-05-02 23:01:00,61.0,44.0,30.26,ESE,108,6.0,9.0,53,0.00,,,0.00,,2013-05-03 03:01:00,
2013-05-02 23:11:00,61.0,44.0,30.26,ESE,108,6.0,9.0,53,0.00,,,0.00,,2013-05-03 03:11:00,
2013-05-02 23:21:00,60.0,43.0,30.26,ESE,115,3.0,7.0,54,0.00,,,0.00,,2013-05-03 03:21:00,
2013-05-02 23:33:00,59.0,43.0,30.27,East,83,3.0,5.0,56,0.00,,,0.00,,2013-05-03 03:33:00,
2013-05-02 23:43:00,59.0,43.0,30.27,East,83,3.0,5.0,56,0.00,,,0.00,,2013-05-03 03:43:00,
2013-05-02 23:53:00,59.0,44.0,30.27,SE,131,2.0,5.0,57,0.00,,,0.00,,2013-05-03 03:53:00,